Time;durP1;ratioP1;P1;durP2;ratioP2;P2;SDS_P1;SDS_P2;PMS_P1;PMS_P2;Temp;Humidity;BMP_temperature;BMP_pressure;BME280_temperature;BME280_humidity;BME280_pressure;Samples;Min_cycle;Max_cycle;Signal;HPM_P1;HPM_P2
2022/08/27 00:02:11;;;;;;;8.75;3.55;;;12.90;99.90;;;;;;5065101;28;20758;-50
2022/08/27 00:04:37;;;;;;;9.15;3.60;;;13.00;99.90;;;;;;5066214;28;20076;-49
2022/08/27 00:07:04;;;;;;;6.35;3.08;;;12.90;99.90;;;;;;5049675;28;20485;-50
2022/08/27 00:09:30;;;;;;;8.82;3.33;;;12.80;99.90;;;;;;5065312;28;20552;-48
2022/08/27 00:11:57;;;;;;;10.60;4.30;;;12.60;99.90;;;;;;5063907;28;20043;-48
2022/08/27 00:14:24;;;;;;;12.30;4.50;;;12.80;99.90;;;;;;5039941;28;20056;-48
2022/08/27 00:16:50;;;;;;;7.88;3.10;;;12.70;99.90;;;;;;5065810;28;20044;-46
2022/08/27 00:19:16;;;;;;;7.78;3.20;;;12.70;99.90;;;;;;5065481;28;20066;-51
2022/08/27 00:21:42;;;;;;;8.95;3.72;;;12.90;99.90;;;;;;5063121;28;20037;-49
2022/08/27 00:24:08;;;;;;;6.85;3.40;;;14.40;99.90;;;;;;5065533;28;20047;-48
2022/08/27 00:26:35;;;;;;;8.55;3.40;;;12.50;99.90;;;;;;5041538;28;20048;-50
2022/08/27 00:29:01;;;;;;;8.82;4.80;;;12.60;99.90;;;;;;5063835;28;20127;-48
2022/08/27 00:31:27;;;;;;;8.70;3.90;;;12.50;99.90;;;;;;5064332;28;20128;-51
2022/08/27 00:33:53;;;;;;;9.45;4.70;;;12.60;99.90;;;;;;5066915;28;20087;-47
2022/08/27 00:36:19;;;;;;;9.25;4.35;;;12.40;99.90;;;;;;5036152;28;20393;-49
2022/08/27 00:38:45;;;;;;;11.25;4.63;;;12.80;99.90;;;;;;5062995;28;20512;-48
2022/08/27 00:41:12;;;;;;;7.70;3.65;;;12.40;99.90;;;;;;5064169;28;20093;-49
2022/08/27 00:43:44;;;;;;;11.00;5.03;;;12.70;99.90;;;;;;5063699;28;20043;-49
2022/08/27 00:46:15;;;;;;;;;;;12.40;99.90;;;;;;5066409;28;20040;-49
2022/08/27 00:48:40;;;;;;;7.03;4.22;;;12.30;99.90;;;;;;5066261;28;19920;-49
2022/08/27 00:51:06;;;;;;;6.30;3.90;;;12.20;99.90;;;;;;5063731;28;20121;-48
2022/08/27 00:53:34;;;;;;;9.32;4.28;;;12.20;99.90;;;;;;5069059;28;20044;-48
2022/08/27 00:56:14;;;;;;;7.22;3.65;;;12.30;99.90;;;;;;5065479;28;20303;-48
2022/08/27 00:58:47;;;;;;;7.00;3.53;;;12.00;99.90;;;;;;5062582;28;20043;-47
2022/08/27 01:01:17;;;;;;;7.20;3.70;;;12.70;99.90;;;;;;5065059;28;20044;-47
2022/08/27 01:03:46;;;;;;;6.40;3.20;;;12.10;99.90;;;;;;5065375;28;20706;-49
2022/08/27 01:06:14;;;;;;;8.65;4.30;;;12.10;99.90;;;;;;5066158;28;20036;-50
2022/08/27 01:08:44;;;;;;;5.70;2.70;;;11.90;99.90;;;;;;5062721;28;20389;-51
2022/08/27 01:11:11;;;;;;;9.18;3.38;;;12.00;99.90;;;;;;5065332;28;20047;-47
2022/08/27 01:13:37;;;;;;;5.78;2.90;;;13.60;99.90;;;;;;5046412;28;21233;-51
2022/08/27 01:16:05;;;;;;;10.73;3.42;;;12.10;99.90;;;;;;5062354;28;20492;-49
2022/08/27 01:18:34;;;;;;;7.00;3.10;;;11.90;99.90;;;;;;5064446;28;20106;-47
2022/08/27 01:21:25;;;;;;;8.68;3.50;;;12.10;99.90;;;;;;5067645;28;20043;-48
2022/08/27 01:24:00;;;;;;;11.20;3.83;;;11.90;99.90;;;;;;5038278;28;20076;-50
2022/08/27 01:26:27;;;;;;;7.57;3.65;;;11.90;99.90;;;;;;5058868;28;20451;-50
2022/08/27 01:28:53;;;;;;;8.57;4.57;;;12.00;99.90;;;;;;5042972;28;20079;-48
2022/08/27 01:31:19;;;;;;;10.68;4.20;;;12.00;99.90;;;;;;5064417;28;20044;-47
2022/08/27 01:34:00;;;;;;;8.27;4.00;;;11.70;99.90;;;;;;5065528;28;20102;-48
2022/08/27 01:36:26;;;;;;;5.82;3.78;;;11.90;99.90;;;;;;5068346;28;20439;-50
2022/08/27 01:38:52;;;;;;;11.23;4.47;;;11.90;99.90;;;;;;5063814;28;20043;-49
2022/08/27 01:41:19;;;;;;;7.65;4.20;;;12.00;99.90;;;;;;5065534;28;20048;-46
2022/08/27 01:43:45;;;;;;;7.78;4.07;;;11.90;99.90;;;;;;5064428;28;20086;-48
2022/08/27 01:46:11;;;;;;;10.32;4.43;;;12.80;99.90;;;;;;5063990;28;20508;-48
2022/08/27 01:48:36;;;;;;;11.82;5.00;;;12.00;99.90;;;;;;5067044;28;20069;-47
2022/08/27 01:51:02;;;;;;;6.82;4.28;;;12.00;99.90;;;;;;5066760;28;20105;-47
2022/08/27 01:53:28;;;;;;;7.47;3.63;;;12.20;99.90;;;;;;5069365;28;20032;-48
2022/08/27 01:55:54;;;;;;;8.55;4.30;;;12.20;99.90;;;;;;5067037;28;20129;-49
2022/08/27 01:58:26;;;;;;;8.05;4.70;;;12.00;99.90;;;;;;5067963;28;20055;-49
2022/08/27 02:00:56;;;;;;;7.57;4.68;;;13.10;99.90;;;;;;5067244;28;20127;-49
2022/08/27 02:03:22;;;;;;;8.27;3.88;;;12.30;99.90;;;;;;5067844;28;20041;-47
2022/08/27 02:05:47;;;;;;;8.35;4.45;;;12.20;99.90;;;;;;5050722;28;20042;-47
2022/08/27 02:08:16;;;;;;;8.65;4.45;;;12.10;99.90;;;;;;5065879;28;20039;-49
2022/08/27 02:10:43;;;;;;;8.05;3.88;;;12.10;99.90;;;;;;5070006;28;20044;-47
2022/08/27 02:13:11;;;;;;;8.65;4.38;;;12.20;99.90;;;;;;5072573;28;20483;-47
2022/08/27 02:15:38;;;;;;;7.28;4.47;;;12.30;99.90;;;;;;5066749;28;20048;-48
2022/08/27 02:18:05;;;;;;;10.30;4.45;;;14.20;99.90;;;;;;5069232;28;20051;-46
2022/08/27 02:20:31;;;;;;;10.48;4.30;;;12.20;99.90;;;;;;5069993;28;20138;-47
2022/08/27 02:22:57;;;;;;;7.30;4.05;;;12.10;99.90;;;;;;5064781;28;20068;-47
2022/08/27 02:25:24;;;;;;;5.93;3.63;;;12.00;99.90;;;;;;5070401;28;20139;-49
2022/08/27 02:27:50;;;;;;;8.95;4.70;;;14.20;99.90;;;;;;5067594;28;20120;-50
2022/08/27 02:30:19;;;;;;;11.93;4.25;;;12.10;99.90;;;;;;5061866;28;20632;-49
2022/08/27 02:32:46;;;;;;;8.40;4.35;;;12.20;99.90;;;;;;5067211;28;20119;-48
2022/08/27 02:35:16;;;;;;;12.15;5.15;;;12.10;99.90;;;;;;5050807;28;20120;-49
2022/08/27 02:37:43;;;;;;;11.35;4.65;;;12.10;99.90;;;;;;5050347;28;20210;-48
2022/08/27 02:40:11;;;;;;;9.90;5.10;;;12.00;99.90;;;;;;5064328;28;20083;-47
2022/08/27 02:42:37;;;;;;;8.77;4.53;;;12.20;99.90;;;;;;5067298;28;20029;-49
2022/08/27 02:45:05;;;;;;;10.55;4.80;;;13.60;99.90;;;;;;5065845;28;20040;-50
2022/08/27 02:47:30;;;;;;;9.40;4.85;;;12.10;99.90;;;;;;5065622;28;20036;-49
2022/08/27 02:49:56;;;;;;;13.80;5.65;;;11.90;99.90;;;;;;5068121;28;20044;-48
2022/08/27 02:52:22;;;;;;;11.10;5.10;;;12.00;99.90;;;;;;5067343;28;20356;-48
2022/08/27 02:54:48;;;;;;;9.73;5.00;;;12.00;99.90;;;;;;5067907;28;20493;-48
2022/08/27 02:57:13;;;;;;;7.70;4.40;;;13.00;99.90;;;;;;5047996;28;20041;-50
2022/08/27 02:59:39;;;;;;;9.68;5.15;;;12.00;99.90;;;;;;5066658;28;20044;-46
2022/08/27 03:02:05;;;;;;;9.05;4.35;;;12.10;99.90;;;;;;5045744;28;20040;-50
2022/08/27 03:04:31;;;;;;;7.22;4.40;;;11.90;99.90;;;;;;5051054;28;20093;-48
2022/08/27 03:06:56;;;;;;;12.50;5.30;;;12.20;99.90;;;;;;5051467;28;20580;-48
2022/08/27 03:09:22;;;;;;;10.75;4.72;;;14.40;99.90;;;;;;5049125;28;20066;-47
2022/08/27 03:11:48;;;;;;;8.27;5.00;;;12.10;99.90;;;;;;5069595;28;20036;-47
2022/08/27 03:14:13;;;;;;;8.48;4.80;;;13.10;99.90;;;;;;5070852;28;20040;-47
2022/08/27 03:16:39;;;;;;;12.85;4.65;;;12.00;99.90;;;;;;5067503;28;20363;-48
2022/08/27 03:19:06;;;;;;;8.63;5.47;;;12.10;99.90;;;;;;5066360;28;20074;-50
2022/08/27 03:21:33;;;;;;;8.82;4.85;;;12.20;99.90;;;;;;5065041;28;20066;-48
2022/08/27 03:24:00;;;;;;;9.65;4.43;;;12.20;99.90;;;;;;5070295;28;20063;-47
2022/08/27 03:26:27;;;;;;;8.48;4.68;;;12.10;99.90;;;;;;5070683;28;20166;-48
2022/08/27 03:28:54;;;;;;;8.90;4.93;;;13.00;99.90;;;;;;5066549;28;20066;-49
2022/08/27 03:31:26;;;;;;;8.70;4.93;;;13.30;99.90;;;;;;5069056;28;20049;-47
2022/08/27 03:33:57;;;;;;;9.15;5.43;;;12.00;99.90;;;;;;5063922;28;20654;-47
2022/08/27 03:36:24;;;;;;;8.63;5.10;;;11.90;99.90;;;;;;5065608;28;20054;-49
2022/08/27 03:38:49;;;;;;;11.52;5.28;;;11.90;99.90;;;;;;5066342;28;20279;-49
2022/08/27 03:41:16;;;;;;;11.65;5.43;;;12.10;99.90;;;;;;5050697;28;20041;-49
2022/08/27 03:43:42;;;;;;;8.35;5.20;;;12.00;99.90;;;;;;5069427;28;20044;-48
2022/08/27 03:46:08;;;;;;;9.52;5.32;;;12.50;99.90;;;;;;5033714;28;20498;-47
2022/08/27 03:48:34;;;;;;;9.32;5.10;;;12.10;99.90;;;;;;5035697;28;20044;-47
2022/08/27 03:51:09;;;;;;;10.30;5.80;;;11.90;99.90;;;;;;5036834;28;20103;-48
2022/08/27 03:53:36;;;;;;;7.38;4.75;;;11.90;99.90;;;;;;5034532;28;20335;-50
2022/08/27 03:56:03;;;;;;;8.70;5.75;;;11.90;99.90;;;;;;5034445;28;20555;-47
2022/08/27 03:58:29;;;;;;;14.63;5.35;;;12.00;99.90;;;;;;5016850;28;20458;-49
2022/08/27 04:00:55;;;;;;;7.95;4.97;;;12.00;99.90;;;;;;5034912;28;20036;-52
2022/08/27 04:03:21;;;;;;;10.00;5.22;;;12.10;99.90;;;;;;5034649;28;20052;-50
2022/08/27 04:05:52;;;;;;;15.40;5.20;;;11.90;99.90;;;;;;5034738;28;20088;-50
2022/08/27 04:08:18;;;;;;;6.13;4.50;;;13.00;99.90;;;;;;5034532;28;20044;-51
2022/08/27 04:10:43;;;;;;;8.45;4.65;;;11.70;99.90;;;;;;5033633;28;20036;-49
2022/08/27 04:13:09;;;;;;;6.78;4.80;;;13.80;99.90;;;;;;5034215;28;20041;-51
2022/08/27 04:15:35;;;;;;;8.20;4.10;;;11.60;99.90;;;;;;5033550;28;20151;-49
2022/08/27 04:18:01;;;;;;;6.72;4.65;;;12.00;99.90;;;;;;5036858;28;20037;-49
2022/08/27 04:20:27;;;;;;;10.75;3.92;;;14.00;99.90;;;;;;5033744;28;20505;-48
2022/08/27 04:22:53;;;;;;;10.73;4.47;;;11.60;99.90;;;;;;5034846;28;20041;-47
2022/08/27 04:25:18;;;;;;;8.25;4.47;;;11.60;99.90;;;;;;5032790;28;20037;-49
2022/08/27 04:27:44;;;;;;;7.28;4.80;;;11.80;99.90;;;;;;5016214;28;20106;-48
2022/08/27 04:30:14;;;;;;;8.93;4.63;;;11.60;99.90;;;;;;5033055;28;20040;-49
2022/08/27 04:32:40;;;;;;;9.75;4.60;;;11.60;99.90;;;;;;5033275;28;20048;-48
2022/08/27 04:35:06;;;;;;;8.48;5.15;;;11.90;99.90;;;;;;5032680;28;20522;-47
2022/08/27 04:37:32;;;;;;;13.15;4.93;;;11.70;99.90;;;;;;5032165;28;20040;-50
2022/08/27 04:39:58;;;;;;;12.57;4.90;;;11.70;99.90;;;;;;5014888;28;20285;-49
2022/08/27 04:42:24;;;;;;;9.43;4.50;;;13.90;99.90;;;;;;5033880;28;20053;-49
2022/08/27 04:44:52;;;;;;;9.15;4.38;;;12.80;99.90;;;;;;5047363;28;20577;-50
2022/08/27 04:47:19;;;;;;;10.45;4.78;;;12.10;99.90;;;;;;5063652;28;20448;-50
2022/08/27 04:49:45;;;;;;;9.32;4.60;;;11.90;99.90;;;;;;5064457;28;20046;-47
2022/08/27 04:52:11;;;;;;;6.63;4.43;;;12.00;99.90;;;;;;5062932;28;20044;-51
2022/08/27 04:54:36;;;;;;;7.78;4.38;;;12.10;99.90;;;;;;5063103;28;20048;-48
2022/08/27 04:57:04;;;;;;;5.88;4.35;;;12.20;99.90;;;;;;5067720;28;20047;-48
2022/08/27 04:59:31;;;;;;;8.77;4.75;;;12.10;99.90;;;;;;5064971;28;20140;-51
2022/08/27 05:01:57;;;;;;;7.53;4.13;;;12.20;99.90;;;;;;5061471;28;20059;-49
2022/08/27 05:04:23;;;;;;;8.32;4.10;;;12.10;99.90;;;;;;5059729;28;20040;-51
2022/08/27 05:06:49;;;;;;;7.25;3.90;;;12.30;99.90;;;;;;5046681;28;20040;-49
2022/08/27 05:09:16;;;;;;;6.13;3.92;;;12.40;99.90;;;;;;5066688;28;20040;-50
2022/08/27 05:11:42;;;;;;;7.18;4.20;;;12.80;99.90;;;;;;5066058;28;20040;-51
2022/08/27 05:14:11;;;;;;;5.72;3.70;;;15.00;99.90;;;;;;5064473;28;20629;-49
2022/08/27 05:16:37;;;;;;;10.45;4.22;;;12.60;99.90;;;;;;5067059;28;20101;-50
2022/08/27 05:19:08;;;;;;;8.15;4.10;;;12.80;99.90;;;;;;5060213;28;20084;-51
2022/08/27 05:21:38;;;;;;;7.20;4.20;;;13.00;99.90;;;;;;5063720;28;20071;-51
2022/08/27 05:24:06;;;;;;;8.55;3.90;;;12.80;99.90;;;;;;5064785;28;20049;-51
2022/08/27 05:26:33;;;;;;;6.53;4.03;;;13.10;99.90;;;;;;5067534;28;20055;-48
2022/08/27 05:29:00;;;;;;;5.95;3.47;;;12.90;99.90;;;;;;5065381;28;20118;-50
2022/08/27 05:31:27;;;;;;;8.15;3.95;;;12.90;99.90;;;;;;5065076;28;20492;-50
2022/08/27 05:33:55;;;;;;;7.30;4.22;;;13.20;99.90;;;;;;5067513;28;20299;-50
2022/08/27 05:36:25;;;;;;;11.13;4.03;;;13.20;99.90;;;;;;5068455;28;20417;-49
2022/08/27 05:38:52;;;;;;;9.05;5.18;;;13.40;99.90;;;;;;5066686;28;20504;-52
2022/08/27 05:41:23;;;;;;;8.02;4.10;;;13.40;99.90;;;;;;5067075;28;20048;-49
2022/08/27 05:43:49;;;;;;;7.65;4.15;;;13.30;99.90;;;;;;5067225;28;20036;-51
2022/08/27 05:46:17;;;;;;;11.40;4.15;;;14.60;99.90;;;;;;5066431;28;20803;-48
2022/08/27 05:48:43;;;;;;;9.00;4.07;;;13.60;99.90;;;;;;5068000;28;20055;-53
2022/08/27 05:51:13;;;;;;;9.70;4.28;;;13.90;99.90;;;;;;5066651;28;20037;-50
2022/08/27 05:53:40;;;;;;;9.60;3.83;;;13.90;99.90;;;;;;5064061;28;20101;-52
2022/08/27 05:56:23;;;;;;;14.45;4.25;;;14.00;99.90;;;;;;5065008;28;20245;-51
2022/08/27 06:01:37;;;;;;;6.53;3.40;;;14.30;99.90;;;;;;5069200;28;20516;-50
2022/08/27 06:04:04;;;;;;;9.05;3.05;;;14.70;99.90;;;;;;5064429;28;20503;-54
2022/08/27 06:06:33;;;;;;;7.03;3.25;;;15.30;99.90;;;;;;5066314;28;20151;-52
2022/08/27 06:08:59;;;;;;;13.77;2.88;;;15.70;99.90;;;;;;5067436;28;20166;-54
2022/08/27 06:11:25;;;;;;;8.45;2.67;;;16.00;99.90;;;;;;5060830;28;20037;-50
2022/08/27 06:13:50;;;;;;;8.00;2.45;;;16.80;99.90;;;;;;5064953;28;20106;-53
2022/08/27 06:16:18;;;;;;;6.70;2.30;;;17.00;99.90;;;;;;5047752;28;20047;-53
2022/08/27 06:18:46;;;;;;;5.97;2.55;;;17.00;99.90;;;;;;5069097;28;20470;-52
2022/08/27 06:21:13;;;;;;;6.50;2.15;;;17.10;99.90;;;;;;5067662;28;20032;-51
2022/08/27 06:23:40;;;;;;;7.72;1.90;;;17.20;99.90;;;;;;5067870;28;20048;-52
2022/08/27 06:26:08;;;;;;;6.18;1.70;;;17.10;99.90;;;;;;5069327;28;20471;-49
2022/08/27 06:28:34;;;;;;;8.80;3.42;;;17.10;99.90;;;;;;5039596;28;20511;-52
2022/08/27 06:31:05;;;;;;;7.78;2.17;;;16.90;99.90;;;;;;5067720;28;20067;-52
2022/08/27 06:33:31;;;;;;;9.75;2.30;;;17.20;99.90;;;;;;5062619;28;21686;-51
2022/08/27 06:36:04;;;;;;;8.32;2.33;;;16.90;99.90;;;;;;5067834;28;20104;-52
2022/08/27 06:38:30;;;;;;;5.90;2.00;;;17.20;99.90;;;;;;5064099;28;20032;-49
2022/08/27 06:40:57;;;;;;;9.55;2.97;;;17.00;99.90;;;;;;5067891;28;20044;-49
2022/08/27 06:43:24;;;;;;;8.63;2.20;;;17.30;99.90;;;;;;5065522;28;20040;-53
2022/08/27 06:45:49;;;;;;;10.93;2.40;;;17.10;99.90;;;;;;5066817;28;20817;-52
2022/08/27 06:48:15;;;;;;;7.50;2.20;;;17.20;99.90;;;;;;5067404;28;20044;-52
2022/08/27 06:50:42;;;;;;;9.13;1.90;;;17.40;99.90;;;;;;5047830;28;20564;-51
2022/08/27 06:53:08;;;;;;;8.38;2.15;;;17.40;99.90;;;;;;5067999;28;20075;-52
2022/08/27 06:55:45;;;;;;;7.32;2.40;;;17.40;99.90;;;;;;5065353;28;20121;-52
2022/08/27 06:58:11;;;;;;;5.88;1.73;;;17.50;99.90;;;;;;5063406;28;20044;-48
2022/08/27 07:00:37;;;;;;;8.50;2.05;;;17.70;99.90;;;;;;5061524;28;20101;-52
2022/08/27 07:03:05;;;;;;;6.78;1.90;;;17.60;99.90;;;;;;5066635;28;20074;-53
2022/08/27 07:05:37;;;;;;;9.82;2.45;;;18.30;99.90;;;;;;5059313;28;20039;-46
2022/08/27 07:08:03;;;;;;;;;;;17.60;99.90;;;;;;5038580;28;20122;-47
2022/08/27 07:10:30;;;;;;;10.80;2.70;;;17.60;99.90;;;;;;5068243;28;19924;-46
2022/08/27 07:12:56;;;;;;;5.90;2.17;;;17.90;99.90;;;;;;5063809;28;20660;-47
2022/08/27 07:15:23;;;;;;;6.55;1.73;;;17.80;99.90;;;;;;5067503;28;20357;-46
2022/08/27 07:17:48;;;;;;;7.78;1.80;;;18.10;99.90;;;;;;5063469;28;20071;-46
2022/08/27 07:20:15;;;;;;;9.48;1.95;;;18.00;99.90;;;;;;5068136;28;20123;-45
2022/08/27 07:22:43;;;;;;;12.52;2.00;;;18.00;99.90;;;;;;5064931;28;20040;-45
2022/08/27 07:25:12;;;;;;;5.15;1.60;;;18.10;99.90;;;;;;5065654;28;20044;-48
2022/08/27 07:27:38;;;;;;;6.47;1.73;;;19.50;99.90;;;;;;5063931;28;20044;-49
2022/08/27 07:30:06;;;;;;;6.82;1.75;;;18.30;99.90;;;;;;5051510;28;20045;-48
2022/08/27 07:32:33;;;;;;;8.95;1.73;;;18.10;99.90;;;;;;5058573;28;20516;-47
2022/08/27 07:34:59;;;;;;;7.85;1.60;;;18.30;99.90;;;;;;5022351;28;20406;-45
2022/08/27 07:37:24;;;;;;;9.90;1.88;;;18.10;99.90;;;;;;5063662;28;20041;-46
2022/08/27 07:39:50;;;;;;;7.53;1.52;;;18.30;99.90;;;;;;5064524;28;20075;-48
2022/08/27 07:45:00;;;;;;;9.40;1.98;;;18.20;99.90;;;;;;5065511;28;20149;-48
2022/08/27 07:47:26;;;;;;;5.28;1.60;;;18.50;99.90;;;;;;5063074;28;20664;-46
2022/08/27 07:49:52;;;;;;;7.90;1.55;;;18.50;99.90;;;;;;5061729;28;20102;-47
2022/08/27 07:52:17;;;;;;;9.55;1.48;;;18.40;99.90;;;;;;5062970;28;20410;-47
2022/08/27 07:54:43;;;;;;;8.85;1.67;;;18.40;99.90;;;;;;5066055;28;20047;-49
2022/08/27 07:57:10;;;;;;;6.97;1.83;;;18.50;99.90;;;;;;5065776;28;20037;-49
2022/08/27 07:59:36;;;;;;;6.75;1.83;;;18.50;99.90;;;;;;5068369;28;20078;-46
2022/08/27 08:02:02;;;;;;;6.18;1.70;;;18.60;99.90;;;;;;5065412;28;20102;-46
2022/08/27 08:04:28;;;;;;;11.85;1.40;;;18.60;99.90;;;;;;5064515;28;20052;-45
2022/08/27 08:06:54;;;;;;;8.38;1.40;;;19.00;99.90;;;;;;5065528;28;20036;-49
2022/08/27 08:09:22;;;;;;;7.25;1.20;;;18.90;99.90;;;;;;5064168;28;20054;-44
2022/08/27 08:11:49;;;;;;;5.85;1.65;;;17.10;99.90;;;;;;5062816;28;20122;-47
2022/08/27 08:14:15;;;;;;;9.27;1.60;;;19.10;99.90;;;;;;5064453;28;20331;-44
2022/08/27 08:16:41;;;;;;;6.57;1.13;;;19.00;99.90;;;;;;5047292;28;20040;-45
2022/08/27 08:19:08;;;;;;;6.03;1.35;;;17.70;99.90;;;;;;5066566;28;20028;-46
2022/08/27 08:21:34;;;;;;;10.32;2.25;;;19.00;99.90;;;;;;5060116;28;20398;-46
2022/08/27 08:24:01;;;;;;;9.68;1.35;;;19.10;99.90;;;;;;5062243;28;20048;-48
2022/08/27 08:26:27;;;;;;;5.03;1.20;;;18.90;99.90;;;;;;5034814;28;20101;-45
2022/08/27 08:28:54;;;;;;;10.52;1.92;;;19.00;99.90;;;;;;5044047;28;20736;-49
2022/08/27 08:31:20;;;;;;;7.07;1.52;;;19.20;99.90;;;;;;5067795;28;20055;-44
2022/08/27 08:33:49;;;;;;;13.20;1.40;;;19.20;99.90;;;;;;5062094;28;20674;-49
2022/08/27 08:36:16;;;;;;;11.68;2.97;;;19.10;99.90;;;;;;5066019;28;20113;-46
2022/08/27 08:38:44;;;;;;;5.95;1.10;;;19.20;99.90;;;;;;5061302;28;20043;-48
2022/08/27 08:41:36;;;;;;;6.53;1.27;;;19.20;99.90;;;;;;5065295;28;20052;-46
2022/08/27 08:44:11;;;;;;;9.88;1.75;;;19.00;99.90;;;;;;5048939;28;20052;-48
2022/08/27 08:46:48;;;;;;;8.65;1.48;;;19.20;99.90;;;;;;5061260;28;20102;-47
2022/08/27 08:49:27;;;;;;;5.03;1.10;;;19.10;99.90;;;;;;5063010;28;20067;-47
2022/08/27 08:51:59;;;;;;;7.95;1.60;;;19.30;99.90;;;;;;5064881;28;20504;-50
2022/08/27 08:54:29;;;;;;;5.50;1.17;;;19.10;99.90;;;;;;5062288;28;20090;-45
2022/08/27 08:57:04;;;;;;;7.65;1.25;;;19.20;99.90;;;;;;5066770;28;20563;-48
2022/08/27 08:59:40;;;;;;;10.73;2.03;;;19.60;99.90;;;;;;5069002;28;20051;-49
2022/08/27 09:02:08;;;;;;;8.57;1.95;;;19.70;99.90;;;;;;5063892;28;20052;-45
2022/08/27 09:04:34;;;;;;;9.13;1.85;;;19.70;99.90;;;;;;5070573;28;20416;-44
2022/08/27 09:07:08;;;;;;;8.27;1.67;;;19.80;99.90;;;;;;5073801;28;20844;-45
2022/08/27 09:09:54;;;;;;;6.82;1.52;;;19.80;99.90;;;;;;5070042;28;20048;-46
2022/08/27 09:12:29;;;;;;;10.52;2.50;;;19.50;99.90;;;;;;5072876;28;21419;-48
2022/08/27 09:15:09;;;;;;;8.80;1.48;;;19.40;99.90;;;;;;5071644;28;20047;-45
2022/08/27 09:17:35;;;;;;;8.30;2.08;;;19.30;99.90;;;;;;5072876;28;20417;-45
2022/08/27 09:20:03;;;;;;;8.25;1.52;;;19.50;99.90;;;;;;5070483;28;20035;-49
2022/08/27 09:22:46;;;;;;;9.27;1.58;;;19.40;99.90;;;;;;5070299;28;20128;-48
2022/08/27 09:25:23;;;;;;;7.20;1.48;;;19.30;99.90;;;;;;5064835;28;20080;-47
2022/08/27 09:27:51;;;;;;;6.57;1.30;;;19.90;99.90;;;;;;5066153;28;20051;-45
2022/08/27 09:30:24;;;;;;;7.57;1.40;;;19.80;99.90;;;;;;5069162;28;20151;-45
2022/08/27 09:32:56;;;;;;;7.28;1.55;;;19.70;99.90;;;;;;5070692;28;20525;-49
2022/08/27 09:35:25;;;;;;;10.27;2.42;;;19.70;99.90;;;;;;5065569;28;20531;-46
2022/08/27 09:37:54;;;;;;;8.80;1.30;;;19.90;99.90;;;;;;5070263;28;20040;-48
2022/08/27 09:40:32;;;;;;;10.25;1.70;;;20.50;99.90;;;;;;5067094;28;20408;-47
2022/08/27 09:43:14;;;;;;;6.82;1.33;;;20.50;99.90;;;;;;5073196;28;20040;-44
2022/08/27 09:45:48;;;;;;;8.85;1.50;;;20.60;99.90;;;;;;5072918;28;20127;-47
2022/08/27 09:48:19;;;;;;;7.00;1.52;;;20.30;99.90;;;;;;5069357;28;20052;-48
2022/08/27 09:50:52;;;;;;;9.98;1.42;;;20.00;99.90;;;;;;5052231;28;20052;-50
2022/08/27 09:53:32;;;;;;;6.63;1.20;;;19.90;99.90;;;;;;5070383;28;20447;-48
2022/08/27 09:56:06;;;;;;;3.53;0.68;;;20.00;99.90;;;;;;5070436;28;20036;-48
2022/08/27 09:58:52;;;;;;;10.32;1.77;;;20.20;99.90;;;;;;5068147;28;20039;-47
2022/08/27 10:01:25;;;;;;;5.78;1.42;;;20.10;99.90;;;;;;5071811;28;20146;-46
2022/08/27 10:04:13;;;;;;;13.05;1.55;;;19.90;99.90;;;;;;5069374;28;20193;-48
2022/08/27 10:06:50;;;;;;;6.60;1.20;;;19.70;99.90;;;;;;5061242;28;20064;-46
2022/08/27 10:09:19;;;;;;;9.55;1.45;;;19.90;99.90;;;;;;5063012;28;20526;-47
2022/08/27 10:12:05;;;;;;;5.03;1.05;;;20.10;99.90;;;;;;5067033;28;20036;-46
2022/08/27 10:14:37;;;;;;;8.32;1.60;;;21.60;99.90;;;;;;5063075;28;20044;-46
2022/08/27 10:17:44;;;;;;;5.85;1.25;;;20.10;99.90;;;;;;5064939;28;20131;-45
2022/08/27 10:20:10;;;;;;;11.40;1.42;;;19.90;99.90;;;;;;5054117;28;20539;-47
2022/08/27 10:23:15;;;;;;;6.40;1.20;;;19.80;99.90;;;;;;5065620;28;20044;-48
2022/08/27 10:25:47;;;;;;;6.20;1.35;;;19.80;99.90;;;;;;4983243;28;20061;-46
2022/08/27 10:28:25;;;;;;;7.78;1.42;;;19.40;99.90;;;;;;5062365;28;20037;-46
2022/08/27 10:31:20;;;;;;;5.75;1.60;;;19.50;99.90;;;;;;5060865;28;20940;-48
2022/08/27 10:34:15;;;;;;;6.20;1.45;;;19.50;99.90;;;;;;5065966;28;20028;-45
2022/08/27 10:37:01;;;;;;;8.38;1.52;;;19.70;99.90;;;;;;5064210;28;20063;-47
2022/08/27 10:39:54;;;;;;;5.45;1.05;;;20.20;99.90;;;;;;5060228;28;20049;-45
2022/08/27 10:42:33;;;;;;;4.47;1.10;;;20.70;99.90;;;;;;5069913;28;20040;-47
2022/08/27 10:45:16;;;;;;;6.20;1.00;;;21.20;99.90;;;;;;5064715;28;20048;-44
2022/08/27 10:47:48;;;;;;;6.20;1.05;;;21.10;99.90;;;;;;5065090;28;21021;-45
2022/08/27 10:50:18;;;;;;;5.05;1.58;;;21.00;99.90;;;;;;5058457;28;20383;-46
2022/08/27 10:52:46;;;;;;;5.55;1.00;;;21.20;99.90;;;;;;5062785;28;20088;-47
2022/08/27 10:55:22;;;;;;;7.13;1.35;;;21.10;99.90;;;;;;5063717;28;20511;-47
2022/08/27 10:58:05;;;;;;;6.20;1.10;;;22.20;99.90;;;;;;5060417;28;20382;-46
2022/08/27 11:01:02;;;;;;;5.70;1.00;;;22.70;99.90;;;;;;5057897;28;20048;-44
2022/08/27 11:03:59;;;;;;;6.32;0.88;;;23.20;99.90;;;;;;5029891;28;20083;-49
2022/08/27 11:06:31;;;;;;;7.07;1.10;;;23.00;99.90;;;;;;5060066;28;20047;-49
2022/08/27 11:09:04;;;;;;;5.97;1.50;;;22.70;99.90;;;;;;5059582;28;20051;-46
2022/08/27 11:11:38;;;;;;;5.75;1.52;;;22.50;99.90;;;;;;5060390;28;20048;-44
2022/08/27 11:14:08;;;;;;;6.90;0.93;;;22.20;99.90;;;;;;5061176;28;20051;-45
2022/08/27 11:16:44;;;;;;;9.35;1.38;;;22.60;99.90;;;;;;5065107;28;20190;-46
2022/08/27 11:19:38;;;;;;;4.88;1.02;;;22.80;99.90;;;;;;5062024;28;20039;-45
2022/08/27 11:22:14;;;;;;;9.23;1.20;;;22.90;99.90;;;;;;5062888;28;20564;-44
2022/08/27 11:24:51;;;;;;;7.53;1.02;;;22.80;99.90;;;;;;5060619;28;20047;-49
2022/08/27 11:27:22;;;;;;;6.82;1.38;;;22.30;99.90;;;;;;5059339;28;20055;-45
2022/08/27 11:30:09;;;;;;;12.48;1.63;;;22.00;99.90;;;;;;5064290;28;20072;-46
2022/08/27 11:32:48;;;;;;;5.45;1.00;;;21.70;99.90;;;;;;5060615;28;20044;-44
2022/08/27 11:35:29;;;;;;;6.65;1.10;;;21.30;99.90;;;;;;5063649;28;20455;-49
2022/08/27 11:38:07;;;;;;;6.75;1.13;;;21.30;99.90;;;;;;5037745;28;20043;-48
2022/08/27 11:41:11;;;;;;;9.27;1.50;;;21.40;99.90;;;;;;5060453;28;20297;-46
2022/08/27 11:43:37;;;;;;;7.10;1.08;;;21.50;99.90;;;;;;5064596;28;20111;-44
2022/08/27 11:46:07;;;;;;;6.72;1.55;;;22.00;99.90;;;;;;5065126;28;20059;-45
2022/08/27 11:48:40;;;;;;;7.60;1.50;;;21.70;99.90;;;;;;5063117;28;20401;-45
2022/08/27 11:51:29;;;;;;;7.68;1.10;;;23.10;99.90;;;;;;5063963;28;20047;-43
2022/08/27 11:53:58;;;;;;;5.40;1.00;;;22.30;99.90;;;;;;5058318;28;20040;-46
2022/08/27 11:56:29;;;;;;;7.68;1.70;;;22.00;99.90;;;;;;5064267;28;20040;-45
2022/08/27 11:59:07;;;;;;;9.30;1.23;;;22.10;99.90;;;;;;5061633;28;20046;-47
2022/08/27 12:01:33;;;;;;;9.00;1.23;;;21.70;99.90;;;;;;5061680;28;20048;-46
2022/08/27 12:04:18;;;;;;;7.38;1.35;;;21.70;99.90;;;;;;5058976;28;20051;-50
2022/08/27 12:07:20;;;;;;;10.52;1.58;;;21.20;99.90;;;;;;5065149;28;20048;-47
2022/08/27 12:09:55;;;;;;;6.82;1.15;;;21.50;99.90;;;;;;5051706;28;20126;-49
2022/08/27 12:12:52;;;;;;;7.55;1.60;;;21.70;99.90;;;;;;5062086;28;20208;-46
2022/08/27 12:15:26;;;;;;;5.30;1.00;;;21.60;99.90;;;;;;5062039;28;20125;-47
2022/08/27 12:18:13;;;;;;;5.57;0.88;;;21.70;99.90;;;;;;5063195;28;20054;-47
2022/08/27 12:20:50;;;;;;;6.75;1.10;;;21.60;99.90;;;;;;5061693;28;20036;-50
2022/08/27 12:26:22;;;;;;;6.80;0.90;;;21.90;99.90;;;;;;5062159;28;20083;-49
2022/08/27 12:28:48;;;;;;;5.10;0.80;;;21.80;99.90;;;;;;5059427;28;20400;-48
2022/08/27 12:31:20;;;;;;;7.68;1.00;;;21.90;99.90;;;;;;5043070;28;20048;-46
2022/08/27 12:33:49;;;;;;;8.27;1.10;;;21.80;99.90;;;;;;5060175;28;20085;-47
2022/08/27 12:36:24;;;;;;;4.57;0.90;;;21.60;99.90;;;;;;5058833;28;20060;-45
2022/08/27 12:38:53;;;;;;;7.32;0.90;;;21.30;99.90;;;;;;5060373;28;20036;-47
2022/08/27 12:41:30;;;;;;;6.43;1.10;;;21.00;99.90;;;;;;5063865;28;20707;-44
2022/08/27 12:44:12;;;;;;;4.40;0.80;;;20.90;99.90;;;;;;5059934;28;20037;-48
2022/08/27 12:46:49;;;;;;;5.15;0.98;;;21.30;99.90;;;;;;5060559;28;20052;-48
2022/08/27 12:49:26;;;;;;;4.38;0.90;;;21.40;99.90;;;;;;5065147;28;20048;-46
2022/08/27 12:51:53;;;;;;;7.35;0.98;;;21.90;99.90;;;;;;5064030;28;20040;-47
2022/08/27 12:54:46;;;;;;;9.98;1.38;;;22.10;99.90;;;;;;5061688;28;20428;-44
2022/08/27 12:57:27;;;;;;;9.75;1.02;;;21.80;99.90;;;;;;5059667;28;20049;-46
2022/08/27 13:00:01;;;;;;;4.95;1.90;;;21.60;99.90;;;;;;5058194;28;20135;-47
2022/08/27 13:02:49;;;;;;;4.00;0.73;;;21.60;99.90;;;;;;5059690;28;20769;-45
2022/08/27 13:05:20;;;;;;;6.38;1.08;;;21.30;99.90;;;;;;5068127;28;20075;-44
2022/08/27 13:07:49;;;;;;;5.53;1.10;;;21.40;99.90;;;;;;5067283;28;20047;-46
2022/08/27 13:10:18;;;;;;;3.78;0.73;;;21.60;99.90;;;;;;5064848;28;20087;-45
2022/08/27 13:12:45;;;;;;;5.03;0.93;;;21.70;99.90;;;;;;5038454;28;20070;-45